Time;durP1;ratioP1;P1;durP2;ratioP2;P2;SDS_P1;SDS_P2;PMS_P1;PMS_P2;Temp;Humidity;BMP_temperature;BMP_pressure;BME280_temperature;BME280_humidity;BME280_pressure;Samples;Min_cycle;Max_cycle;Signal;HPM_P1;HPM_P2
2023/07/08 00:00:29;;;;;;;0.47;0.45;;;;;;;;;;5092525;28;20028;-90
2023/07/08 00:02:55;;;;;;;0.17;0.17;;;;;;;;;;5092718;28;20031;-89
2023/07/08 00:05:23;;;;;;;0.28;0.28;;;;;;;;;;5093157;28;20028;-89
2023/07/08 00:07:49;;;;;;;0.75;0.70;;;;;;;;;;5092890;28;20032;-90
2023/07/08 00:10:17;;;;;;;0.32;0.32;;;;;;;;;;5092781;28;20028;-89
2023/07/08 00:12:43;;;;;;;0.98;0.75;;;;;;;;;;5092908;28;20407;-89
2023/07/08 00:15:10;;;;;;;0.75;0.50;;;;;;;;;;5095890;28;20055;-89
2023/07/08 00:17:36;;;;;;;0.40;0.38;;;;;;;;;;5096375;28;20417;-90
2023/07/08 00:20:02;;;;;;;0.20;0.20;;;;;;;;;;5096833;28;20093;-90
2023/07/08 00:22:28;;;;;;;0.35;0.35;;;;;;;;;;5096310;28;20034;-89
2023/07/08 00:24:54;;;;;;;0.43;0.40;;;;;;;;;;5096625;28;20024;-89
2023/07/08 00:27:20;;;;;;;0.10;0.10;;;;;;;;;;5096527;28;20100;-90
2023/07/08 00:29:46;;;;;;;0.50;0.50;;;;;;;;;;5096820;28;20100;-89
2023/07/08 00:32:13;;;;;;;3.03;1.02;;;;;;;;;;5096447;28;20381;-89
2023/07/08 00:34:39;;;;;;;0.20;0.20;;;;;;;;;;5096746;28;20188;-89
2023/07/08 00:37:05;;;;;;;0.40;0.40;;;;;;;;;;5096438;28;20020;-89
2023/07/08 00:39:34;;;;;;;0.30;0.30;;;;;;;;;;5096536;28;20024;-89
2023/07/08 00:42:10;;;;;;;0.43;0.43;;;;;;;;;;5096271;28;20024;-90
2023/07/08 00:44:36;;;;;;;0.20;0.20;;;;;;;;;;5095971;28;20028;-90
2023/07/08 00:47:04;;;;;;;0.15;0.13;;;;;;;;;;5095941;28;20049;-90
2023/07/08 00:49:42;;;;;;;1.38;0.70;;;;;;;;;;5096148;28;20031;-89
2023/07/08 00:52:35;;;;;;;1.98;0.70;;;;;;;;;;5096181;28;20035;-89
2023/07/08 00:55:08;;;;;;;1.70;1.15;;;;;;;;;;5091648;28;20040;-89
2023/07/08 00:57:36;;;;;;;3.65;0.73;;;;;;;;;;5096009;28;20117;-90
2023/07/08 01:00:08;;;;;;;1.00;0.43;;;;;;;;;;5095694;28;20024;-90
2023/07/08 01:02:36;;;;;;;0.10;0.10;;;;;;;;;;5096474;28;20392;-89
2023/07/08 01:05:07;;;;;;;3.92;1.77;;;;;;;;;;5096076;28;20020;-89
2023/07/08 01:07:34;;;;;;;5.07;1.15;;;;;;;;;;5095877;28;20054;-89
2023/07/08 01:10:03;;;;;;;0.22;0.22;;;;;;;;;;5096043;28;20078;-89
2023/07/08 01:12:37;;;;;;;0.20;0.20;;;;;;;;;;5095470;28;20092;-90
2023/07/08 01:15:04;;;;;;;0.10;0.10;;;;;;;;;;5095399;28;20026;-89
2023/07/08 01:17:33;;;;;;;0.17;0.17;;;;;;;;;;5096111;28;20115;-89
2023/07/08 01:20:13;;;;;;;0.25;0.25;;;;;;;;;;5095592;28;20476;-89
2023/07/08 01:22:39;;;;;;;0.00;0.00;;;;;;;;;;5095264;28;20047;-89
2023/07/08 01:25:06;;;;;;;0.00;0.00;;;;;;;;;;5094964;28;20091;-89
2023/07/08 01:27:33;;;;;;;0.28;0.28;;;;;;;;;;5094712;28;20073;-89
2023/07/08 01:30:00;;;;;;;0.00;0.00;;;;;;;;;;5095334;28;20042;-89
2023/07/08 01:32:26;;;;;;;1.05;0.43;;;;;;;;;;5095338;28;20027;-89
2023/07/08 01:35:00;;;;;;;0.68;0.47;;;;;;;;;;5095887;28;20024;-89
2023/07/08 01:37:29;;;;;;;0.00;0.00;;;;;;;;;;5095244;28;20103;-90
2023/07/08 01:39:55;;;;;;;0.22;0.22;;;;;;;;;;5095097;28;20472;-90
2023/07/08 01:42:21;;;;;;;0.15;0.15;;;;;;;;;;5095215;28;20035;-90
2023/07/08 01:44:47;;;;;;;0.00;0.00;;;;;;;;;;5095197;28;20513;-89
2023/07/08 01:47:15;;;;;;;0.52;0.30;;;;;;;;;;5094727;28;20020;-90
2023/07/08 01:49:42;;;;;;;0.00;0.00;;;;;;;;;;5095096;28;20032;-90
2023/07/08 01:52:08;;;;;;;0.10;0.10;;;;;;;;;;5094936;28;20035;-89
2023/07/08 01:54:34;;;;;;;0.25;0.17;;;;;;;;;;5094790;28;20035;-90
2023/07/08 01:57:02;;;;;;;0.00;0.00;;;;;;;;;;5094904;28;20032;-89
2023/07/08 01:59:28;;;;;;;0.00;0.00;;;;;;;;;;5094692;28;20020;-89
2023/07/08 02:01:55;;;;;;;0.00;0.00;;;;;;;;;;5094947;28;20171;-90
2023/07/08 02:04:24;;;;;;;0.10;0.10;;;;;;;;;;5094699;28;20020;-89
2023/07/08 02:06:54;;;;;;;10.35;0.70;;;;;;;;;;5094824;28;20035;-89
2023/07/08 02:09:21;;;;;;;0.00;0.00;;;;;;;;;;5094886;28;20111;-90
2023/07/08 02:11:47;;;;;;;0.13;0.13;;;;;;;;;;5094419;28;20040;-90
2023/07/08 02:14:13;;;;;;;0.00;0.00;;;;;;;;;;5094680;28;20020;-89
2023/07/08 02:16:39;;;;;;;0.10;0.10;;;;;;;;;;5094280;28;20024;-89
2023/07/08 02:19:05;;;;;;;0.05;0.05;;;;;;;;;;5094461;28;20366;-89
2023/07/08 02:21:31;;;;;;;0.00;0.00;;;;;;;;;;5094383;28;20027;-89
2023/07/08 02:23:57;;;;;;;0.10;0.10;;;;;;;;;;5094088;28;20061;-90
2023/07/08 02:26:23;;;;;;;1.20;0.43;;;;;;;;;;5094026;28;20030;-89
2023/07/08 02:28:50;;;;;;;0.10;0.10;;;;;;;;;;5094324;28;20052;-89
2023/07/08 02:31:16;;;;;;;0.10;0.10;;;;;;;;;;5094169;28;20040;-89
2023/07/08 02:33:42;;;;;;;0.00;0.00;;;;;;;;;;5094130;28;20107;-89
2023/07/08 02:36:08;;;;;;;0.10;0.10;;;;;;;;;;5094550;28;20028;-89
2023/07/08 02:38:34;;;;;;;0.28;0.25;;;;;;;;;;5093673;28;20090;-89
2023/07/08 02:41:00;;;;;;;0.10;0.10;;;;;;;;;;5093777;28;20103;-89
2023/07/08 02:43:26;;;;;;;0.10;0.10;;;;;;;;;;5093948;28;20047;-89
2023/07/08 02:45:52;;;;;;;0.20;0.20;;;;;;;;;;5093892;28;20395;-89
2023/07/08 02:48:19;;;;;;;0.13;0.13;;;;;;;;;;5094140;28;20025;-89
2023/07/08 02:50:45;;;;;;;0.20;0.20;;;;;;;;;;5093783;28;20620;-89
2023/07/08 02:53:11;;;;;;;0.10;0.10;;;;;;;;;;5093850;28;20016;-89
2023/07/08 02:55:37;;;;;;;0.15;0.10;;;;;;;;;;5093406;28;20028;-89
2023/07/08 02:58:03;;;;;;;0.10;0.10;;;;;;;;;;5094012;28;20020;-89
2023/07/08 03:00:29;;;;;;;0.13;0.13;;;;;;;;;;5093495;28;20110;-89
2023/07/08 03:02:55;;;;;;;0.10;0.10;;;;;;;;;;5093766;28;20400;-89
2023/07/08 03:05:21;;;;;;;0.00;0.00;;;;;;;;;;5094057;28;20038;-89
2023/07/08 03:07:47;;;;;;;0.10;0.10;;;;;;;;;;5093434;28;20589;-89
2023/07/08 03:10:13;;;;;;;0.10;0.10;;;;;;;;;;5093225;28;20050;-89
2023/07/08 03:12:39;;;;;;;0.17;0.17;;;;;;;;;;5093573;28;20602;-89
2023/07/08 03:15:05;;;;;;;0.10;0.05;;;;;;;;;;5093340;28;20055;-89
2023/07/08 03:17:31;;;;;;;0.00;0.00;;;;;;;;;;5093465;28;20020;-89
2023/07/08 03:19:57;;;;;;;0.00;0.00;;;;;;;;;;5093839;28;20357;-89
2023/07/08 03:22:23;;;;;;;0.00;0.00;;;;;;;;;;5092899;28;20070;-90
2023/07/08 03:24:49;;;;;;;0.03;0.03;;;;;;;;;;5093078;28;20023;-89
2023/07/08 03:27:15;;;;;;;0.00;0.00;;;;;;;;;;5093170;28;20078;-89
2023/07/08 03:29:42;;;;;;;0.40;0.10;;;;;;;;;;5093051;28;20468;-89
2023/07/08 03:32:10;;;;;;;0.10;0.10;;;;;;;;;;5093221;28;20024;-89
2023/07/08 03:34:36;;;;;;;0.00;0.00;;;;;;;;;;5093128;28;20024;-89
2023/07/08 03:37:02;;;;;;;0.30;0.30;;;;;;;;;;5075261;28;20169;-89
2023/07/08 03:39:28;;;;;;;0.10;0.10;;;;;;;;;;5092775;28;20053;-89
2023/07/08 03:41:54;;;;;;;0.08;0.08;;;;;;;;;;5093057;28;20032;-89
2023/07/08 03:44:20;;;;;;;0.30;0.30;;;;;;;;;;5092895;28;20024;-90
2023/07/08 03:46:49;;;;;;;0.00;0.00;;;;;;;;;;5093080;28;20396;-89
2023/07/08 03:49:15;;;;;;;0.60;0.10;;;;;;;;;;5092222;28;20028;-90
2023/07/08 03:51:42;;;;;;;0.00;0.00;;;;;;;;;;5093076;28;20085;-89
2023/07/08 03:54:15;;;;;;;0.05;0.05;;;;;;;;;;5092665;28;20028;-89
2023/07/08 03:56:41;;;;;;;0.10;0.10;;;;;;;;;;5092838;28;20028;-89
2023/07/08 03:59:08;;;;;;;0.10;0.10;;;;;;;;;;5092940;28;20503;-89
2023/07/08 04:01:34;;;;;;;0.10;0.10;;;;;;;;;;5092388;28;20024;-89
2023/07/08 04:04:00;;;;;;;0.10;0.10;;;;;;;;;;5093046;28;20476;-89
2023/07/08 04:06:28;;;;;;;0.20;0.20;;;;;;;;;;5092641;28;20031;-89
2023/07/08 04:08:54;;;;;;;0.15;0.15;;;;;;;;;;5092421;28;20032;-89
2023/07/08 04:11:21;;;;;;;0.47;0.47;;;;;;;;;;5092533;28;20036;-90
2023/07/08 04:13:47;;;;;;;0.00;0.00;;;;;;;;;;5092774;28;20032;-89
2023/07/08 04:16:19;;;;;;;0.47;0.40;;;;;;;;;;5092810;28;20035;-90
2023/07/08 04:18:45;;;;;;;0.17;0.17;;;;;;;;;;5093087;28;20485;-89
2023/07/08 04:21:11;;;;;;;0.10;0.10;;;;;;;;;;5092670;28;20028;-89
2023/07/08 04:23:37;;;;;;;0.32;0.28;;;;;;;;;;5092211;28;20028;-89
2023/07/08 04:26:03;;;;;;;0.13;0.13;;;;;;;;;;5092761;28;20035;-90
2023/07/08 04:28:29;;;;;;;0.40;0.40;;;;;;;;;;5092695;28;20117;-89
2023/07/08 04:30:55;;;;;;;0.20;0.20;;;;;;;;;;5092518;28;20503;-89
2023/07/08 04:33:21;;;;;;;0.70;0.38;;;;;;;;;;5092562;28;20017;-89
2023/07/08 04:35:47;;;;;;;0.10;0.10;;;;;;;;;;5092590;28;20027;-90
2023/07/08 04:38:19;;;;;;;0.10;0.10;;;;;;;;;;5092547;28;20029;-89
2023/07/08 04:40:45;;;;;;;0.28;0.28;;;;;;;;;;5092560;28;20085;-89
2023/07/08 04:43:11;;;;;;;0.03;0.03;;;;;;;;;;5092472;28;20040;-89
2023/07/08 04:45:38;;;;;;;0.15;0.15;;;;;;;;;;5092417;28;20039;-89
2023/07/08 04:48:08;;;;;;;0.30;0.30;;;;;;;;;;5092413;28;20032;-89
2023/07/08 04:50:35;;;;;;;0.10;0.10;;;;;;;;;;5092231;28;20043;-90
2023/07/08 04:53:02;;;;;;;0.60;0.50;;;;;;;;;;5092473;28;20016;-89
2023/07/08 04:55:28;;;;;;;0.30;0.30;;;;;;;;;;5092410;28;20024;-89
2023/07/08 04:57:54;;;;;;;0.00;0.00;;;;;;;;;;5092649;28;20088;-90
2023/07/08 05:00:21;;;;;;;0.00;0.00;;;;;;;;;;5093544;28;20028;-90
2023/07/08 05:02:47;;;;;;;0.30;0.10;;;;;;;;;;5096124;28;20400;-89
2023/07/08 05:05:13;;;;;;;0.05;0.05;;;;;;;;;;5095747;28;20484;-89
2023/07/08 05:07:39;;;;;;;0.30;0.30;;;;;;;;;;5096050;28;20077;-89
2023/07/08 05:10:05;;;;;;;0.10;0.10;;;;;;;;;;5096115;28;20028;-90
2023/07/08 05:12:31;;;;;;;0.00;0.00;;;;;;;;;;5095660;28;20028;-89
2023/07/08 05:14:57;;;;;;;0.00;0.00;;;;;;;;;;5096169;28;20051;-89
2023/07/08 05:17:24;;;;;;;0.35;0.35;;;;;;;;;;5095744;28;20028;-90
2023/07/08 05:19:51;;;;;;;0.00;0.00;;;;;;;;;;5095400;28;20024;-90
2023/07/08 05:22:18;;;;;;;0.00;0.00;;;;;;;;;;5095613;28;20024;-90
2023/07/08 05:24:44;;;;;;;0.20;0.20;;;;;;;;;;5095629;28;20020;-89
2023/07/08 05:27:13;;;;;;;0.52;0.52;;;;;;;;;;5095742;28;20103;-89
2023/07/08 05:29:39;;;;;;;0.10;0.10;;;;;;;;;;5095377;28;20350;-89
2023/07/08 05:32:05;;;;;;;0.45;0.45;;;;;;;;;;5095471;28;20085;-89
2023/07/08 05:34:31;;;;;;;0.10;0.10;;;;;;;;;;5095045;28;20016;-89
2023/07/08 05:36:57;;;;;;;0.98;0.60;;;;;;;;;;5095295;28;20404;-89
2023/07/08 05:39:23;;;;;;;0.00;0.00;;;;;;;;;;5095692;28;20027;-89
2023/07/08 05:41:49;;;;;;;0.22;0.22;;;;;;;;;;5095278;28;20047;-89
2023/07/08 05:44:15;;;;;;;0.00;0.00;;;;;;;;;;5095285;28;20025;-89
2023/07/08 05:46:41;;;;;;;0.95;0.20;;;;;;;;;;5095084;28;20024;-89
2023/07/08 05:49:07;;;;;;;0.35;0.32;;;;;;;;;;5094675;28;20032;-89
2023/07/08 05:51:34;;;;;;;0.20;0.20;;;;;;;;;;5095688;28;20128;-89
2023/07/08 05:54:00;;;;;;;0.15;0.08;;;;;;;;;;5076866;28;20020;-89
2023/07/08 05:56:26;;;;;;;0.10;0.10;;;;;;;;;;5094865;28;20028;-90
2023/07/08 05:58:52;;;;;;;0.20;0.20;;;;;;;;;;5094830;28;20058;-89
2023/07/08 06:01:18;;;;;;;0.50;0.40;;;;;;;;;;5095130;28;20472;-89
2023/07/08 06:03:44;;;;;;;0.10;0.10;;;;;;;;;;5094572;28;20024;-89
2023/07/08 06:06:10;;;;;;;0.10;0.10;;;;;;;;;;5094962;28;20469;-89
2023/07/08 06:08:36;;;;;;;0.00;0.00;;;;;;;;;;5095111;28;20060;-92
2023/07/08 06:11:02;;;;;;;0.17;0.17;;;;;;;;;;5094827;28;20047;-90
2023/07/08 06:13:28;;;;;;;0.20;0.20;;;;;;;;;;5094947;28;20020;-92
2023/07/08 06:15:54;;;;;;;0.10;0.10;;;;;;;;;;5094916;28;20028;-92
2023/07/08 06:18:20;;;;;;;0.15;0.10;;;;;;;;;;5095093;28;20035;-93
2023/07/08 06:20:56;;;;;;;0.20;0.20;;;;;;;;;;5094381;28;20016;-85
2023/07/08 06:23:22;;;;;;;2.72;0.47;;;;;;;;;;5075453;28;20491;-85
2023/07/08 06:25:48;;;;;;;0.13;0.13;;;;;;;;;;5094155;28;20020;-85
2023/07/08 06:28:15;;;;;;;0.10;0.10;;;;;;;;;;5093783;28;20109;-85
2023/07/08 06:30:41;;;;;;;0.30;0.30;;;;;;;;;;5093616;28;20040;-85
2023/07/08 06:33:07;;;;;;;0.30;0.30;;;;;;;;;;5093248;28;20020;-85
2023/07/08 06:35:33;;;;;;;0.65;0.43;;;;;;;;;;5093524;28;20464;-85
2023/07/08 06:37:59;;;;;;;0.80;0.38;;;;;;;;;;5093869;28;20107;-85
2023/07/08 06:40:25;;;;;;;0.32;0.32;;;;;;;;;;5093589;28;20073;-85
2023/07/08 06:42:51;;;;;;;0.63;0.63;;;;;;;;;;5093610;28;20035;-85
2023/07/08 06:45:17;;;;;;;0.40;0.40;;;;;;;;;;5093237;28;20062;-85
2023/07/08 06:47:43;;;;;;;0.20;0.20;;;;;;;;;;5093315;28;20052;-85
2023/07/08 06:50:09;;;;;;;0.10;0.10;;;;;;;;;;5093206;28;20034;-85
2023/07/08 06:52:36;;;;;;;0.13;0.13;;;;;;;;;;5093188;28;20028;-85
2023/07/08 06:55:02;;;;;;;0.75;0.52;;;;;;;;;;5093194;28;20020;-86
2023/07/08 06:57:28;;;;;;;0.15;0.15;;;;;;;;;;5093077;28;20472;-85
2023/07/08 06:59:54;;;;;;;0.20;0.20;;;;;;;;;;5092907;28;20031;-84
2023/07/08 07:02:20;;;;;;;0.38;0.20;;;;;;;;;;5092845;28;20429;-85
2023/07/08 07:04:46;;;;;;;0.20;0.20;;;;;;;;;;5092996;28;20028;-85
2023/07/08 07:07:12;;;;;;;2.75;1.23;;;;;;;;;;5093012;28;20055;-85
2023/07/08 07:09:38;;;;;;;0.93;0.40;;;;;;;;;;5093258;28;20020;-85
2023/07/08 07:12:06;;;;;;;1.10;0.40;;;;;;;;;;5092868;28;20028;-85
2023/07/08 07:14:32;;;;;;;0.30;0.30;;;;;;;;;;5092922;28;20389;-85
2023/07/08 07:16:58;;;;;;;0.47;0.47;;;;;;;;;;5092455;28;20031;-85
2023/07/08 07:19:24;;;;;;;1.13;0.60;;;;;;;;;;5093131;28;20016;-85
2023/07/08 07:21:51;;;;;;;0.13;0.13;;;;;;;;;;5092941;28;20028;-85
2023/07/08 07:24:17;;;;;;;0.15;0.15;;;;;;;;;;5091507;28;20020;-85
2023/07/08 07:26:43;;;;;;;0.38;0.38;;;;;;;;;;5092591;28;20107;-86
2023/07/08 07:29:09;;;;;;;1.75;0.90;;;;;;;;;;5092312;28;20399;-85
2023/07/08 07:31:35;;;;;;;1.48;0.88;;;;;;;;;;5092360;28;20119;-85
2023/07/08 07:34:01;;;;;;;0.30;0.30;;;;;;;;;;5093023;28;20099;-86
2023/07/08 07:36:28;;;;;;;0.10;0.10;;;;;;;;;;5092863;28;20496;-85
2023/07/08 07:38:54;;;;;;;0.47;0.35;;;;;;;;;;5092683;28;20024;-85
2023/07/08 07:41:21;;;;;;;0.52;0.52;;;;;;;;;;5092628;28;20032;-89
2023/07/08 07:43:47;;;;;;;0.50;0.50;;;;;;;;;;5093448;28;20048;-89
2023/07/08 07:46:13;;;;;;;0.28;0.28;;;;;;;;;;5092914;28;20039;-89
2023/07/08 07:48:39;;;;;;;0.40;0.32;;;;;;;;;;5092808;28;20028;-86
2023/07/08 07:51:08;;;;;;;1.67;0.75;;;;;;;;;;5074171;28;20047;-85
2023/07/08 07:53:34;;;;;;;0.10;0.10;;;;;;;;;;5092305;28;20527;-86
2023/07/08 07:56:01;;;;;;;0.20;0.20;;;;;;;;;;5092350;28;20036;-86
2023/07/08 07:58:27;;;;;;;0.63;0.55;;;;;;;;;;5092215;28;20027;-85
2023/07/08 08:00:53;;;;;;;0.40;0.40;;;;;;;;;;5091786;28;20020;-85
2023/07/08 08:03:20;;;;;;;0.43;0.43;;;;;;;;;;5092163;28;20028;-86
2023/07/08 08:05:46;;;;;;;0.85;0.85;;;;;;;;;;5092617;28;20024;-85
2023/07/08 08:08:12;;;;;;;0.35;0.35;;;;;;;;;;5092449;28;20502;-85
2023/07/08 08:10:38;;;;;;;0.55;0.30;;;;;;;;;;5092111;28;20032;-85
2023/07/08 08:13:04;;;;;;;0.45;0.45;;;;;;;;;;5091761;28;20026;-86
2023/07/08 08:15:30;;;;;;;0.30;0.30;;;;;;;;;;5091756;28;20031;-86
2023/07/08 08:17:56;;;;;;;0.30;0.30;;;;;;;;;;5092365;28;20070;-86
2023/07/08 08:20:24;;;;;;;0.30;0.30;;;;;;;;;;5091979;28;20423;-86
2023/07/08 08:22:50;;;;;;;1.90;0.47;;;;;;;;;;5092016;28;20032;-86
2023/07/08 08:25:18;;;;;;;3.08;0.93;;;;;;;;;;5092167;28;20024;-85
2023/07/08 08:27:44;;;;;;;1.48;0.85;;;;;;;;;;5091684;28;20543;-86
2023/07/08 08:30:10;;;;;;;0.28;0.28;;;;;;;;;;5091591;28;20052;-86
2023/07/08 08:32:36;;;;;;;0.28;0.28;;;;;;;;;;5091892;28;20028;-86
2023/07/08 08:35:02;;;;;;;1.13;1.02;;;;;;;;;;5092776;28;20021;-86
2023/07/08 08:37:28;;;;;;;2.67;1.23;;;;;;;;;;5096276;28;20024;-85
2023/07/08 08:39:54;;;;;;;0.88;0.47;;;;;;;;;;5077736;28;20404;-85
2023/07/08 08:42:28;;;;;;;0.50;0.50;;;;;;;;;;5095910;28;20028;-86
2023/07/08 08:44:57;;;;;;;0.57;0.57;;;;;;;;;;5095474;28;20483;-86
2023/07/08 08:47:36;;;;;;;1.35;0.75;;;;;;;;;;5096105;28;20047;-85
2023/07/08 08:50:09;;;;;;;0.28;0.28;;;;;;;;;;5095873;28;20035;-85
2023/07/08 08:52:36;;;;;;;0.85;0.57;;;;;;;;;;5095479;28;20024;-86
2023/07/08 08:55:02;;;;;;;1.70;0.95;;;;;;;;;;5095743;28;20502;-86
2023/07/08 08:57:46;;;;;;;0.20;0.20;;;;;;;;;;5095233;28;20035;-86
2023/07/08 09:00:15;;;;;;;0.20;0.20;;;;;;;;;;5095387;28;20042;-85
2023/07/08 09:02:53;;;;;;;0.10;0.10;;;;;;;;;;5095305;28;20024;-86
2023/07/08 09:05:19;;;;;;;0.25;0.25;;;;;;;;;;5095353;28;20074;-86
2023/07/08 09:07:52;;;;;;;0.30;0.30;;;;;;;;;;5096095;28;20089;-86
2023/07/08 09:10:24;;;;;;;0.32;0.32;;;;;;;;;;5095259;28;20058;-85
2023/07/08 09:12:51;;;;;;;0.35;0.35;;;;;;;;;;5095038;28;20078;-85
2023/07/08 09:15:17;;;;;;;1.45;0.45;;;;;;;;;;5095562;28;20028;-86
2023/07/08 09:17:43;;;;;;;0.43;0.43;;;;;;;;;;5095208;28;20028;-85
2023/07/08 09:20:22;;;;;;;0.43;0.32;;;;;;;;;;5095073;28;20431;-85
2023/07/08 09:23:07;;;;;;;0.55;0.55;;;;;;;;;;5095169;28;20027;-86
2023/07/08 09:25:37;;;;;;;2.58;0.65;;;;;;;;;;5095203;28;20538;-85
2023/07/08 09:28:04;;;;;;;0.75;0.40;;;;;;;;;;5094551;28;20048;-85
2023/07/08 09:30:30;;;;;;;0.40;0.40;;;;;;;;;;5094740;28;20035;-85
2023/07/08 09:32:56;;;;;;;0.75;0.70;;;;;;;;;;5094877;28;20055;-86
2023/07/08 09:35:24;;;;;;;0.55;0.55;;;;;;;;;;5094822;28;20035;-86
2023/07/08 09:37:50;;;;;;;0.40;0.40;;;;;;;;;;5094685;28;20438;-86
2023/07/08 09:40:18;;;;;;;0.65;0.55;;;;;;;;;;5094764;28;20438;-86
2023/07/08 09:42:45;;;;;;;6.63;1.23;;;;;;;;;;5094628;28;20103;-86
2023/07/08 09:45:13;;;;;;;0.20;0.20;;;;;;;;;;5094544;28;20032;-86
2023/07/08 09:47:40;;;;;;;0.50;0.35;;;;;;;;;;5093512;28;20108;-86
2023/07/08 09:50:21;;;;;;;1.73;0.90;;;;;;;;;;5094399;28;20412;-85
2023/07/08 09:52:48;;;;;;;0.30;0.30;;;;;;;;;;5094370;28;20388;-86
2023/07/08 09:55:14;;;;;;;0.30;0.30;;;;;;;;;;5094611;28;20040;-86
2023/07/08 09:57:41;;;;;;;0.80;0.57;;;;;;;;;;5094059;28;20058;-86
2023/07/08 10:00:15;;;;;;;0.10;0.10;;;;;;;;;;5094125;28;20036;-86
2023/07/08 10:02:44;;;;;;;1.30;1.13;;;;;;;;;;5094130;28;20027;-86
2023/07/08 10:05:20;;;;;;;0.15;0.15;;;;;;;;;;5094371;28;20050;-86
2023/07/08 10:07:47;;;;;;;0.82;0.65;;;;;;;;;;5094657;28;20048;-85
2023/07/08 10:10:19;;;;;;;0.35;0.35;;;;;;;;;;5093851;28;20032;-86
2023/07/08 10:13:05;;;;;;;0.10;0.10;;;;;;;;;;5094137;28;20032;-85
2023/07/08 10:15:31;;;;;;;0.52;0.52;;;;;;;;;;5093844;28;20541;-86
2023/07/08 10:17:57;;;;;;;0.40;0.40;;;;;;;;;;5094133;28;20032;-86
2023/07/08 10:20:24;;;;;;;0.55;0.50;;;;;;;;;;5094088;28;20515;-86
2023/07/08 10:22:50;;;;;;;0.75;0.43;;;;;;;;;;5093601;28;20500;-86
2023/07/08 10:25:29;;;;;;;1.33;0.55;;;;;;;;;;5093362;28;20049;-86
2023/07/08 10:28:25;;;;;;;1.45;1.02;;;;;;;;;;5093740;28;20185;-86
2023/07/08 10:30:51;;;;;;;0.40;0.40;;;;;;;;;;5072383;28;20093;-86
2023/07/08 10:33:17;;;;;;;0.30;0.30;;;;;;;;;;5093847;28;20509;-86
2023/07/08 10:35:49;;;;;;;0.47;0.47;;;;;;;;;;5093649;28;20386;-86
2023/07/08 10:38:21;;;;;;;1.75;0.65;;;;;;;;;;5093657;28;20034;-86
2023/07/08 10:40:50;;;;;;;0.82;0.82;;;;;;;;;;5093628;28;20108;-86
2023/07/08 10:43:20;;;;;;;0.17;0.17;;;;;;;;;;5093105;28;20160;-86
2023/07/08 10:45:54;;;;;;;0.15;0.15;;;;;;;;;;5093757;28;20025;-86
2023/07/08 10:48:39;;;;;;;0.55;0.55;;;;;;;;;;5075221;28;20020;-86
2023/07/08 10:51:05;;;;;;;1.10;0.95;;;;;;;;;;5093083;28;20492;-86
2023/07/08 10:53:37;;;;;;;1.15;0.73;;;;;;;;;;5093503;28;20024;-86
2023/07/08 10:56:23;;;;;;;0.43;0.43;;;;;;;;;;5093312;28;20024;-86
2023/07/08 10:58:58;;;;;;;0.25;0.25;;;;;;;;;;5092611;28;20032;-85
2023/07/08 11:01:24;;;;;;;0.38;0.38;;;;;;;;;;5093219;28;20020;-85
2023/07/08 11:04:06;;;;;;;0.40;0.40;;;;;;;;;;5093142;28;20504;-85
2023/07/08 11:06:38;;;;;;;0.95;0.70;;;;;;;;;;5092742;28;20027;-85
2023/07/08 11:09:06;;;;;;;0.30;0.30;;;;;;;;;;5092673;28;20111;-86
2023/07/08 11:11:49;;;;;;;0.75;0.75;;;;;;;;;;5092794;28;20038;-86
2023/07/08 11:14:21;;;;;;;0.15;0.15;;;;;;;;;;5092991;28;20020;-86
2023/07/08 11:16:59;;;;;;;0.98;0.75;;;;;;;;;;5093221;28;20114;-86
2023/07/08 11:19:33;;;;;;;0.50;0.30;;;;;;;;;;5093341;28;20059;-85
2023/07/08 11:22:01;;;;;;;0.60;0.45;;;;;;;;;;5092446;28;20050;-86
2023/07/08 11:24:37;;;;;;;0.60;0.60;;;;;;;;;;5092494;28;20024;-86
2023/07/08 11:27:19;;;;;;;0.40;0.40;;;;;;;;;;5092761;28;20025;-86
2023/07/08 11:29:48;;;;;;;0.75;0.52;;;;;;;;;;5092663;28;20481;-86
2023/07/08 11:32:16;;;;;;;0.20;0.20;;;;;;;;;;5092692;28;20309;-86
2023/07/08 11:34:43;;;;;;;1.25;0.73;;;;;;;;;;5092435;28;20465;-86
2023/07/08 11:37:11;;;;;;;0.30;0.30;;;;;;;;;;5092195;28;20392;-86
2023/07/08 11:39:42;;;;;;;1.35;0.50;;;;;;;;;;5092564;28;20062;-86
2023/07/08 11:42:26;;;;;;;1.20;0.70;;;;;;;;;;5092637;28;20028;-86
2023/07/08 11:44:55;;;;;;;1.13;0.50;;;;;;;;;;5092587;28;20028;-85
2023/07/08 11:47:35;;;;;;;0.65;0.65;;;;;;;;;;5092906;28;20035;-86
2023/07/08 11:50:02;;;;;;;4.47;1.13;;;;;;;;;;5092193;28;20024;-86
2023/07/08 11:52:29;;;;;;;0.55;0.50;;;;;;;;;;5092072;28;20035;-86
2023/07/08 11:55:13;;;;;;;1.13;0.30;;;;;;;;;;5092254;28;20325;-86
2023/07/08 11:57:42;;;;;;;0.50;0.50;;;;;;;;;;5092213;28;20466;-86
2023/07/08 12:00:19;;;;;;;0.40;0.40;;;;;;;;;;5092355;28;20419;-86
2023/07/08 12:02:53;;;;;;;0.38;0.38;;;;;;;;;;5092408;28;20037;-85
2023/07/08 12:05:30;;;;;;;0.90;0.90;;;;;;;;;;5092201;28;20024;-86
2023/07/08 12:07:58;;;;;;;0.40;0.40;;;;;;;;;;5091925;28;20087;-86
2023/07/08 12:10:27;;;;;;;0.77;0.77;;;;;;;;;;5093758;28;20446;-86
2023/07/08 12:12:53;;;;;;;0.77;0.40;;;;;;;;;;5096546;28;20032;-86
2023/07/08 12:15:23;;;;;;;0.35;0.35;;;;;;;;;;5096291;28;20027;-86
2023/07/08 12:17:51;;;;;;;0.15;0.15;;;;;;;;;;5096325;28;20027;-86
2023/07/08 12:20:24;;;;;;;0.70;0.70;;;;;;;;;;5096512;28;20077;-86
2023/07/08 12:22:50;;;;;;;0.90;0.77;;;;;;;;;;5096100;28;20020;-86
2023/07/08 12:25:18;;;;;;;0.20;0.20;;;;;;;;;;5096055;28;20051;-85
2023/07/08 12:27:45;;;;;;;10.63;0.95;;;;;;;;;;5096410;28;20126;-86
2023/07/08 12:30:12;;;;;;;0.30;0.30;;;;;;;;;;5095606;28;20036;-86
2023/07/08 12:32:38;;;;;;;0.88;0.88;;;;;;;;;;5096209;28;20437;-86
2023/07/08 12:35:05;;;;;;;0.35;0.32;;;;;;;;;;5095639;28;20472;-86
2023/07/08 12:37:32;;;;;;;0.20;0.20;;;;;;;;;;5095802;28;20032;-86
2023/07/08 12:40:03;;;;;;;0.17;0.17;;;;;;;;;;5095891;28;20030;-86
2023/07/08 12:42:30;;;;;;;0.50;0.50;;;;;;;;;;5096120;28;20431;-86
2023/07/08 12:44:56;;;;;;;0.22;0.22;;;;;;;;;;5095420;28;20388;-86
2023/07/08 12:47:22;;;;;;;0.45;0.35;;;;;;;;;;5096242;28;20436;-86
2023/07/08 12:49:48;;;;;;;1.42;1.33;;;;;;;;;;5095269;28;20022;-85
2023/07/08 12:52:22;;;;;;;2.83;0.50;;;;;;;;;;5095718;28;20028;-86
2023/07/08 12:54:48;;;;;;;0.20;0.20;;;;;;;;;;5095591;28;20031;-87
2023/07/08 12:57:15;;;;;;;0.20;0.20;;;;;;;;;;5095895;28;20094;-86
2023/07/08 12:59:42;;;;;;;1.65;1.52;;;;;;;;;;5095277;28;20431;-85
2023/07/08 13:02:16;;;;;;;0.43;0.43;;;;;;;;;;5095372;28;20479;-85
2023/07/08 13:04:42;;;;;;;0.55;0.55;;;;;;;;;;5095000;28;20020;-86
2023/07/08 13:07:17;;;;;;;0.30;0.30;;;;;;;;;;5095729;28;20077;-86
2023/07/08 13:09:45;;;;;;;0.45;0.45;;;;;;;;;;5077097;28;20024;-86
2023/07/08 13:12:15;;;;;;;0.45;0.45;;;;;;;;;;5095081;28;20044;-85
2023/07/08 13:14:43;;;;;;;0.15;0.15;;;;;;;;;;5095190;28;20035;-86
2023/07/08 13:17:12;;;;;;;0.65;0.43;;;;;;;;;;5095382;28;20027;-86
2023/07/08 13:19:38;;;;;;;0.35;0.35;;;;;;;;;;5094657;28;20032;-86
2023/07/08 13:22:05;;;;;;;0.35;0.35;;;;;;;;;;5095227;28;20020;-86
2023/07/08 13:24:32;;;;;;;2.33;0.50;;;;;;;;;;5094916;28;20028;-86
2023/07/08 13:26:58;;;;;;;0.50;0.50;;;;;;;;;;5094767;28;20024;-86
2023/07/08 13:29:25;;;;;;;0.40;0.38;;;;;;;;;;5095029;28;20487;-86
2023/07/08 13:31:57;;;;;;;0.88;0.88;;;;;;;;;;5095099;28;20452;-86
2023/07/08 13:34:24;;;;;;;0.80;0.43;;;;;;;;;;5094459;28;20024;-86
2023/07/08 13:36:51;;;;;;;0.32;0.32;;;;;;;;;;5094986;28;20032;-86
2023/07/08 13:39:25;;;;;;;0.20;0.20;;;;;;;;;;5094751;28;20028;-86
2023/07/08 13:41:51;;;;;;;0.15;0.10;;;;;;;;;;5094647;28;20024;-86
2023/07/08 13:44:17;;;;;;;0.35;0.35;;;;;;;;;;5094766;28;20031;-86
2023/07/08 13:47:03;;;;;;;0.40;0.40;;;;;;;;;;5094673;28;20384;-86
2023/07/08 13:49:30;;;;;;;0.20;0.10;;;;;;;;;;5094217;28;20512;-86
2023/07/08 13:52:25;;;;;;;0.28;0.28;;;;;;;;;;5094299;28;20028;-86
2023/07/08 13:54:53;;;;;;;0.75;0.40;;;;;;;;;;5073282;28;20033;-86
2023/07/08 13:57:22;;;;;;;0.50;0.40;;;;;;;;;;5094383;28;20039;-86
2023/07/08 13:59:48;;;;;;;0.43;0.43;;;;;;;;;;5094484;28;20393;-86
2023/07/08 14:02:23;;;;;;;0.35;0.30;;;;;;;;;;5094023;28;20031;-86
2023/07/08 14:04:49;;;;;;;0.08;0.08;;;;;;;;;;5094236;28;20086;-86
2023/07/08 14:07:20;;;;;;;1.25;0.40;;;;;;;;;;5094253;28;20020;-86
2023/07/08 14:09:46;;;;;;;0.20;0.20;;;;;;;;;;5094560;28;20031;-86
2023/07/08 14:12:12;;;;;;;0.52;0.52;;;;;;;;;;5094227;28;20028;-86
2023/07/08 14:14:38;;;;;;;0.10;0.10;;;;;;;;;;5093746;28;20024;-86
2023/07/08 14:17:04;;;;;;;0.60;0.20;;;;;;;;;;5093594;28;20085;-87
2023/07/08 14:19:32;;;;;;;0.10;0.10;;;;;;;;;;5094034;28;20027;-86
2023/07/08 14:22:00;;;;;;;0.10;0.10;;;;;;;;;;5093688;28;20028;-86
2023/07/08 14:24:26;;;;;;;0.45;0.45;;;;;;;;;;5094029;28;20030;-86
2023/07/08 14:26:52;;;;;;;0.20;0.20;;;;;;;;;;5094295;28;20031;-86
2023/07/08 14:29:18;;;;;;;0.20;0.20;;;;;;;;;;5093456;28;20047;-86
2023/07/08 14:31:44;;;;;;;0.40;0.30;;;;;;;;;;5093266;28;20058;-86
2023/07/08 14:34:16;;;;;;;1.17;0.75;;;;;;;;;;5093164;28;20030;-86
2023/07/08 14:36:42;;;;;;;0.20;0.20;;;;;;;;;;5093929;28;20027;-86
2023/07/08 14:39:18;;;;;;;0.15;0.15;;;;;;;;;;5093476;28;20429;-86
2023/07/08 14:41:45;;;;;;;0.22;0.22;;;;;;;;;;5093438;28;20412;-86
2023/07/08 14:44:20;;;;;;;1.02;0.93;;;;;;;;;;5093406;28;20012;-86
2023/07/08 14:46:46;;;;;;;0.13;0.13;;;;;;;;;;5093232;28;20031;-86
2023/07/08 14:49:22;;;;;;;0.20;0.20;;;;;;;;;;5093775;28;20488;-86